sensor_id;sensor_type;location;lat;lon;timestamp;pressure;altitude;pressure_sealevel;temperature;humidity
25130;BME280;13308;50.860;13.664;2023-02-26T07:07:24;96528.78;;;-0.01;100.00
25130;BME280;13308;50.860;13.664;2023-02-26T07:09:49;96534.69;;;-0.33;100.00
25130;BME280;13308;50.860;13.664;2023-02-26T07:12:15;96533.88;;;-0.52;100.00
25130;BME280;13308;50.860;13.664;2023-02-26T07:14:40;96543.91;;;-0.37;100.00
25130;BME280;13308;50.860;13.664;2023-02-26T07:17:07;96552.19;;;-0.65;100.00
25130;BME280;13308;50.860;13.664;2023-02-26T07:19:32;96558.22;;;-0.71;100.00
25130;BME280;13308;50.860;13.664;2023-02-26T07:21:57;96555.78;;;-0.76;100.00
25130;BME280;13308;50.860;13.664;2023-02-26T07:24:23;96568.97;;;-0.75;100.00
25130;BME280;13308;50.860;13.664;2023-02-26T07:26:48;96562.06;;;-0.72;100.00
25130;BME280;13308;50.860;13.664;2023-02-26T07:29:13;96568.16;;;-0.75;100.00
25130;BME280;13308;50.860;13.664;2023-02-26T07:31:39;96571.84;;;-0.68;100.00
25130;BME280;13308;50.860;13.664;2023-02-26T07:34:04;96578.81;;;-0.67;100.00
25130;BME280;13308;50.860;13.664;2023-02-26T07:36:29;96580.19;;;-0.57;100.00
25130;BME280;13308;50.860;13.664;2023-02-26T07:38:55;96586.31;;;-0.60;100.00
25130;BME280;13308;50.860;13.664;2023-02-26T07:41:20;96589.97;;;-0.68;100.00
25130;BME280;13308;50.860;13.664;2023-02-26T07:43:45;96589.47;;;-0.58;100.00
25130;BME280;13308;50.860;13.664;2023-02-26T07:46:11;96590.25;;;-0.58;100.00
25130;BME280;13308;50.860;13.664;2023-02-26T07:48:37;96598.72;;;-0.59;100.00
25130;BME280;13308;50.860;13.664;2023-02-26T07:51:02;96589.47;;;-0.74;100.00
25130;BME280;13308;50.860;13.664;2023-02-26T07:53:28;96587.19;;;-0.72;100.00
25130;BME280;13308;50.860;13.664;2023-02-26T07:55:53;96597.16;;;-0.60;100.00
25130;BME280;13308;50.860;13.664;2023-02-26T07:58:18;96596.28;;;-0.64;100.00
25130;BME280;13308;50.860;13.664;2023-02-26T08:00:44;96596.13;;;-0.71;100.00
25130;BME280;13308;50.860;13.664;2023-02-26T08:03:09;96600.22;;;-0.62;100.00
25130;BME280;13308;50.860;13.664;2023-02-26T08:05:35;96602.38;;;-0.52;100.00
25130;BME280;13308;50.860;13.664;2023-02-26T08:08:01;96616.63;;;-0.55;100.00
25130;BME280;13308;50.860;13.664;2023-02-26T08:10:28;96617.75;;;-0.56;100.00
25130;BME280;13308;50.860;13.664;2023-02-26T08:12:53;96618.63;;;-0.52;100.00
25130;BME280;13308;50.860;13.664;2023-02-26T08:15:19;96632.69;;;-0.62;100.00
25130;BME280;13308;50.860;13.664;2023-02-26T08:17:44;96628.69;;;-0.68;100.00
25130;BME280;13308;50.860;13.664;2023-02-26T08:20:10;96629.41;;;-0.71;100.00
25130;BME280;13308;50.860;13.664;2023-02-26T08:22:36;96638.81;;;-0.65;100.00
25130;BME280;13308;50.860;13.664;2023-02-26T08:25:01;96639.84;;;-0.69;100.00
25130;BME280;13308;50.860;13.664;2023-02-26T08:27:27;96646.50;;;-0.67;100.00
25130;BME280;13308;50.860;13.664;2023-02-26T08:29:52;96640.41;;;-0.64;100.00
25130;BME280;13308;50.860;13.664;2023-02-26T08:32:18;96651.38;;;-0.57;100.00
25130;BME280;13308;50.860;13.664;2023-02-26T08:34:44;96648.16;;;-0.47;100.00
25130;BME280;13308;50.860;13.664;2023-02-26T08:37:10;96661.25;;;-0.49;100.00
25130;BME280;13308;50.860;13.664;2023-02-26T08:39:37;96661.50;;;-0.54;100.00
25130;BME280;13308;50.860;13.664;2023-02-26T08:42:04;96665.91;;;-0.65;100.00
25130;BME280;13308;50.860;13.664;2023-02-26T08:44:30;96665.44;;;-0.51;100.00
25130;BME280;13308;50.860;13.664;2023-02-26T08:46:55;96678.09;;;-0.40;100.00
25130;BME280;13308;50.860;13.664;2023-02-26T08:49:20;96675.50;;;-0.52;100.00
25130;BME280;13308;50.860;13.664;2023-02-26T08:51:46;96686.50;;;-0.45;100.00
25130;BME280;13308;50.860;13.664;2023-02-26T08:54:11;96690.53;;;-0.54;100.00
25130;BME280;13308;50.860;13.664;2023-02-26T08:56:36;96688.50;;;-0.57;100.00
25130;BME280;13308;50.860;13.664;2023-02-26T08:59:02;96689.47;;;-0.50;100.00
25130;BME280;13308;50.860;13.664;2023-02-26T09:01:27;96694.44;;;-0.52;100.00
25130;BME280;13308;50.860;13.664;2023-02-26T09:03:52;96702.47;;;-0.40;100.00
25130;BME280;13308;50.860;13.664;2023-02-26T09:06:18;96697.50;;;-0.38;100.00
25130;BME280;13308;50.860;13.664;2023-02-26T09:08:43;96704.63;;;-0.30;100.00
25130;BME280;13308;50.860;13.664;2023-02-26T09:11:08;96702.63;;;-0.17;100.00
25130;BME280;13308;50.860;13.664;2023-02-26T09:13:34;96713.22;;;-0.28;100.00
25130;BME280;13308;50.860;13.664;2023-02-26T09:15:59;96716.44;;;-0.22;100.00
25130;BME280;13308;50.860;13.664;2023-02-26T09:18:25;96719.16;;;-0.22;100.00
25130;BME280;13308;50.860;13.664;2023-02-26T09:20:50;96723.19;;;-0.32;100.00
25130;BME280;13308;50.860;13.664;2023-02-26T09:23:15;96730.63;;;-0.29;100.00
25130;BME280;13308;50.860;13.664;2023-02-26T09:25:41;96725.47;;;-0.34;100.00
25130;BME280;13308;50.860;13.664;2023-02-26T09:28:06;96727.03;;;-0.33;100.00
25130;BME280;13308;50.860;13.664;2023-02-26T09:30:31;96730.34;;;-0.24;100.00
25130;BME280;13308;50.860;13.664;2023-02-26T09:32:57;96737.34;;;-0.23;100.00
25130;BME280;13308;50.860;13.664;2023-02-26T09:35:23;96751.31;;;-0.21;100.00
25130;BME280;13308;50.860;13.664;2023-02-26T09:37:48;96744.25;;;-0.25;100.00
25130;BME280;13308;50.860;13.664;2023-02-26T09:40:47;96750.44;;;-0.25;100.00
25130;BME280;13308;50.860;13.664;2023-02-26T09:43:34;96745.63;;;-0.16;100.00
25130;BME280;13308;50.860;13.664;2023-02-26T09:46:29;96750.00;;;-0.27;100.00
25130;BME280;13308;50.860;13.664;2023-02-26T09:49:05;96759.53;;;-0.33;100.00
25130;BME280;13308;50.860;13.664;2023-02-26T09:51:34;96765.63;;;-0.36;100.00
25130;BME280;13308;50.860;13.664;2023-02-26T09:54:13;96781.63;;;-0.31;100.00
25130;BME280;13308;50.860;13.664;2023-02-26T09:56:40;96775.28;;;-0.38;100.00
25130;BME280;13308;50.860;13.664;2023-02-26T09:59:08;96779.47;;;-0.41;100.00
25130;BME280;13308;50.860;13.664;2023-02-26T10:01:41;96785.75;;;-0.37;100.00
25130;BME280;13308;50.860;13.664;2023-02-26T10:04:22;96793.63;;;-0.32;100.00
25130;BME280;13308;50.860;13.664;2023-02-26T10:12:35;96800.59;;;-0.16;100.00
25130;BME280;13308;50.860;13.664;2023-02-26T10:15:07;96812.06;;;-0.07;100.00
25130;BME280;13308;50.860;13.664;2023-02-26T10:17:53;96805.41;;;0.06;100.00
25130;BME280;13308;50.860;13.664;2023-02-26T10:23:33;96816.78;;;0.27;100.00
25130;BME280;13308;50.860;13.664;2023-02-26T10:26:07;96813.88;;;0.36;100.00
25130;BME280;13308;50.860;13.664;2023-02-26T10:28:44;96815.59;;;0.44;100.00
25130;BME280;13308;50.860;13.664;2023-02-26T10:31:20;96824.69;;;0.51;100.00
25130;BME280;13308;50.860;13.664;2023-02-26T10:33:52;96824.00;;;0.39;100.00
25130;BME280;13308;50.860;13.664;2023-02-26T10:36:28;96836.50;;;0.43;100.00
25130;BME280;13308;50.860;13.664;2023-02-26T10:39:14;96829.44;;;0.39;100.00
25130;BME280;13308;50.860;13.664;2023-02-26T10:41:40;96842.47;;;0.33;100.00
25130;BME280;13308;50.860;13.664;2023-02-26T10:44:16;96853.41;;;0.37;100.00
25130;BME280;13308;50.860;13.664;2023-02-26T10:46:58;96835.66;;;0.39;100.00
25130;BME280;13308;50.860;13.664;2023-02-26T10:52:24;96836.88;;;0.42;100.00
25130;BME280;13308;50.860;13.664;2023-02-26T10:57:40;96854.75;;;0.62;100.00
25130;BME280;13308;50.860;13.664;2023-02-26T11:00:14;96857.38;;;0.74;100.00
25130;BME280;13308;50.860;13.664;2023-02-26T11:02:43;96854.31;;;0.75;100.00
25130;BME280;13308;50.860;13.664;2023-02-26T11:05:17;96868.06;;;0.67;100.00
25130;BME280;13308;50.860;13.664;2023-02-26T11:07:45;96861.91;;;0.70;100.00
25130;BME280;13308;50.860;13.664;2023-02-26T11:10:18;96865.94;;;0.76;100.00
25130;BME280;13308;50.860;13.664;2023-02-26T11:12:45;96874.34;;;0.71;100.00
25130;BME280;13308;50.860;13.664;2023-02-26T11:15:16;96872.22;;;0.80;100.00
25130;BME280;13308;50.860;13.664;2023-02-26T11:17:44;96875.22;;;0.75;100.00
25130;BME280;13308;50.860;13.664;2023-02-26T11:22:57;96881.91;;;0.62;100.00
25130;BME280;13308;50.860;13.664;2023-02-26T11:25:27;96877.97;;;0.94;100.00
25130;BME280;13308;50.860;13.664;2023-02-26T11:28:01;96881.66;;;1.20;100.00
25130;BME280;13308;50.860;13.664;2023-02-26T11:30:30;96878.66;;;1.44;100.00
25130;BME280;13308;50.860;13.664;2023-02-26T11:32:57;96887.78;;;1.74;100.00
25130;BME280;13308;50.860;13.664;2023-02-26T11:35:28;96888.06;;;2.11;100.00
25130;BME280;13308;50.860;13.664;2023-02-26T11:37:57;96883.00;;;2.32;100.00
25130;BME280;13308;50.860;13.664;2023-02-26T11:40:35;96893.34;;;2.23;100.00
25130;BME280;13308;50.860;13.664;2023-02-26T11:43:07;96890.91;;;2.18;100.00
25130;BME280;13308;50.860;13.664;2023-02-26T11:45:36;96897.97;;;2.00;100.00
25130;BME280;13308;50.860;13.664;2023-02-26T11:48:05;96889.56;;;1.86;100.00
25130;BME280;13308;50.860;13.664;2023-02-26T11:50:43;96896.00;;;1.97;100.00
25130;BME280;13308;50.860;13.664;2023-02-26T11:53:30;96889.44;;;1.79;100.00
25130;BME280;13308;50.860;13.664;2023-02-26T11:56:02;96892.72;;;1.69;100.00
25130;BME280;13308;50.860;13.664;2023-02-26T11:58:33;96896.22;;;1.31;100.00
25130;BME280;13308;50.860;13.664;2023-02-26T12:01:01;96883.13;;;1.18;100.00
25130;BME280;13308;50.860;13.664;2023-02-26T12:03:31;96890.63;;;0.86;100.00
25130;BME280;13308;50.860;13.664;2023-02-26T12:05:58;96883.66;;;0.89;100.00
25130;BME280;13308;50.860;13.664;2023-02-26T12:08:35;96889.81;;;0.86;100.00
25130;BME280;13308;50.860;13.664;2023-02-26T12:17:06;96891.28;;;0.99;100.00
25130;BME280;13308;50.860;13.664;2023-02-26T12:19:43;96898.41;;;1.07;100.00
25130;BME280;13308;50.860;13.664;2023-02-26T12:22:34;96901.81;;;1.19;100.00
25130;BME280;13308;50.860;13.664;2023-02-26T12:30:56;96907.22;;;1.19;100.00
25130;BME280;13308;50.860;13.664;2023-02-26T12:33:52;96903.78;;;1.03;100.00
25130;BME280;13308;50.860;13.664;2023-02-26T12:36:30;96904.25;;;0.90;100.00
25130;BME280;13308;50.860;13.664;2023-02-26T12:42:16;96909.50;;;0.83;100.00
25130;BME280;13308;50.860;13.664;2023-02-26T12:45:05;96905.41;;;0.73;100.00
25130;BME280;13308;50.860;13.664;2023-02-26T12:50:39;96918.63;;;0.75;100.00
25130;BME280;13308;50.860;13.664;2023-02-26T12:58:58;96929.00;;;1.04;100.00
25130;BME280;13308;50.860;13.664;2023-02-26T13:01:30;96932.09;;;1.21;100.00
25130;BME280;13308;50.860;13.664;2023-02-26T13:07:13;96931.75;;;1.42;100.00
25130;BME280;13308;50.860;13.664;2023-02-26T13:15:28;96947.91;;;1.35;100.00
25130;BME280;13308;50.860;13.664;2023-02-26T13:18:26;96945.47;;;1.30;100.00
25130;BME280;13308;50.860;13.664;2023-02-26T13:20:58;96942.34;;;1.28;100.00
25130;BME280;13308;50.860;13.664;2023-02-26T13:23:34;96945.47;;;1.30;100.00
25130;BME280;13308;50.860;13.664;2023-02-26T13:26:05;96942.34;;;1.28;100.00
25130;BME280;13308;50.860;13.664;2023-02-26T13:28:38;96946.97;;;1.27;100.00
25130;BME280;13308;50.860;13.664;2023-02-26T13:31:10;96951.63;;;1.27;100.00
25130;BME280;13308;50.860;13.664;2023-02-26T13:33:37;96946.78;;;1.01;100.00
25130;BME280;13308;50.860;13.664;2023-02-26T13:36:05;96951.00;;;0.99;100.00
25130;BME280;13308;50.860;13.664;2023-02-26T13:38:39;96946.97;;;0.93;100.00
25130;BME280;13308;50.860;13.664;2023-02-26T13:41:15;96958.25;;;0.95;100.00
25130;BME280;13308;50.860;13.664;2023-02-26T13:48:47;96962.53;;;1.11;100.00
25130;BME280;13308;50.860;13.664;2023-02-26T13:51:38;96962.38;;;1.04;100.00
25130;BME280;13308;50.860;13.664;2023-02-26T14:01:34;96961.91;;;1.18;100.00
25130;BME280;13308;50.860;13.664;2023-02-26T14:06:44;96965.06;;;1.20;100.00
25130;BME280;13308;50.860;13.664;2023-02-26T14:11:58;96963.19;;;1.24;100.00
25130;BME280;13308;50.860;13.664;2023-02-26T14:19:32;96979.69;;;1.31;100.00
25130;BME280;13308;50.860;13.664;2023-02-26T14:22:19;96972.91;;;1.40;100.00
25130;BME280;13308;50.860;13.664;2023-02-26T14:27:35;96970.91;;;1.22;100.00
25130;BME280;13308;50.860;13.664;2023-02-26T14:35:32;96984.22;;;0.92;100.00
25130;BME280;13308;50.860;13.664;2023-02-26T14:38:22;96996.56;;;0.90;100.00
25130;BME280;13308;50.860;13.664;2023-02-26T14:40:53;96994.69;;;0.94;100.00
25130;BME280;13308;50.860;13.664;2023-02-26T14:43:33;97002.84;;;0.94;100.00
25130;BME280;13308;50.860;13.664;2023-02-26T14:46:01;97004.09;;;0.81;100.00
25130;BME280;13308;50.860;13.664;2023-02-26T14:48:28;97011.72;;;0.60;100.00
25130;BME280;13308;50.860;13.664;2023-02-26T14:59:16;96990.94;;;0.52;100.00
25130;BME280;13308;50.860;13.664;2023-02-26T15:02:05;97003.56;;;0.60;100.00
25130;BME280;13308;50.860;13.664;2023-02-26T15:07:42;97007.03;;;0.45;100.00
25130;BME280;13308;50.860;13.664;2023-02-26T15:10:25;97007.53;;;0.35;100.00
25130;BME280;13308;50.860;13.664;2023-02-26T15:13:22;97002.66;;;0.40;100.00
25130;BME280;13308;50.860;13.664;2023-02-26T15:16:10;97002.66;;;0.25;100.00
25130;BME280;13308;50.860;13.664;2023-02-26T15:21:54;97016.97;;;0.68;100.00
25130;BME280;13308;50.860;13.664;2023-02-26T15:24:22;97013.38;;;0.80;100.00
25130;BME280;13308;50.860;13.664;2023-02-26T15:26:51;97020.53;;;0.88;100.00
25130;BME280;13308;50.860;13.664;2023-02-26T15:29:21;97025.13;;;0.84;100.00
25130;BME280;13308;50.860;13.664;2023-02-26T15:31:54;97016.50;;;0.82;100.00
25130;BME280;13308;50.860;13.664;2023-02-26T15:34:21;97026.50;;;0.78;100.00
25130;BME280;13308;50.860;13.664;2023-02-26T15:36:49;97017.41;;;0.86;100.00
25130;BME280;13308;50.860;13.664;2023-02-26T15:39:16;97018.78;;;0.80;100.00
25130;BME280;13308;50.860;13.664;2023-02-26T15:41:43;97032.53;;;0.71;100.00
25130;BME280;13308;50.860;13.664;2023-02-26T15:44:15;97028.41;;;0.46;100.00
25130;BME280;13308;50.860;13.664;2023-02-26T15:46:45;97031.88;;;0.47;100.00
25130;BME280;13308;50.860;13.664;2023-02-26T15:49:41;97053.13;;;0.29;100.00
25130;BME280;13308;50.860;13.664;2023-02-26T15:52:12;97052.28;;;0.13;100.00
25130;BME280;13308;50.860;13.664;2023-02-26T15:54:59;97052.34;;;0.01;100.00
25130;BME280;13308;50.860;13.664;2023-02-26T15:57:27;97053.13;;;0.02;100.00
25130;BME280;13308;50.860;13.664;2023-02-26T16:00:00;97045.25;;;-0.03;100.00
25130;BME280;13308;50.860;13.664;2023-02-26T16:02:28;97046.72;;;-0.06;100.00
25130;BME280;13308;50.860;13.664;2023-02-26T16:04:54;97049.78;;;-0.07;100.00
25130;BME280;13308;50.860;13.664;2023-02-26T16:07:19;97051.94;;;-0.13;100.00
25130;BME280;13308;50.860;13.664;2023-02-26T16:09:46;97046.91;;;-0.26;100.00
25130;BME280;13308;50.860;13.664;2023-02-26T16:12:17;97046.94;;;-0.38;100.00
25130;BME280;13308;50.860;13.664;2023-02-26T16:14:48;97045.69;;;-0.40;100.00
25130;BME280;13308;50.860;13.664;2023-02-26T16:17:24;97049.88;;;-0.43;100.00
25130;BME280;13308;50.860;13.664;2023-02-26T16:19:51;97051.69;;;-0.47;100.00
25130;BME280;13308;50.860;13.664;2023-02-26T16:22:31;97055.78;;;-0.65;100.00
25130;BME280;13308;50.860;13.664;2023-02-26T16:25:06;97061.44;;;-0.58;100.00
25130;BME280;13308;50.860;13.664;2023-02-26T16:27:32;97055.78;;;-0.65;100.00
25130;BME280;13308;50.860;13.664;2023-02-26T16:30:00;97063.00;;;-0.81;100.00
25130;BME280;13308;50.860;13.664;2023-02-26T16:32:28;97061.88;;;-0.92;100.00
25130;BME280;13308;50.860;13.664;2023-02-26T16:34:58;97071.69;;;-0.99;100.00
25130;BME280;13308;50.860;13.664;2023-02-26T16:37:33;97077.44;;;-1.13;100.00
25130;BME280;13308;50.860;13.664;2023-02-26T16:40:17;97073.59;;;-1.24;100.00
25130;BME280;13308;50.860;13.664;2023-02-26T16:45:31;97081.94;;;-1.17;100.00
25130;BME280;13308;50.860;13.664;2023-02-26T16:48:10;97091.44;;;-1.11;100.00
25130;BME280;13308;50.860;13.664;2023-02-26T16:50:37;97089.38;;;-1.02;100.00
25130;BME280;13308;50.860;13.664;2023-02-26T16:55:29;97089.75;;;-0.91;100.00
25130;BME280;13308;50.860;13.664;2023-02-26T16:57:57;97100.91;;;-0.81;100.00
25130;BME280;13308;50.860;13.664;2023-02-26T17:00:24;97100.00;;;-0.85;100.00
25130;BME280;13308;50.860;13.664;2023-02-26T17:05:32;97108.59;;;-0.83;100.00
25130;BME280;13308;50.860;13.664;2023-02-26T17:08:14;97112.88;;;-0.82;100.00
25130;BME280;13308;50.860;13.664;2023-02-26T17:10:49;97124.16;;;-0.80;100.00
25130;BME280;13308;50.860;13.664;2023-02-26T17:13:25;97129.13;;;-0.82;100.00
25130;BME280;13308;50.860;13.664;2023-02-26T17:15:52;97124.69;;;-0.86;100.00
25130;BME280;13308;50.860;13.664;2023-02-26T17:18:19;97134.63;;;-0.90;100.00
25130;BME280;13308;50.860;13.664;2023-02-26T17:20:44;97136.31;;;-0.86;100.00
25130;BME280;13308;50.860;13.664;2023-02-26T17:23:13;97131.47;;;-0.92;100.00
25130;BME280;13308;50.860;13.664;2023-02-26T17:25:44;97136.88;;;-0.92;100.00
25130;BME280;13308;50.860;13.664;2023-02-26T17:28:19;97144.19;;;-1.05;100.00
25130;BME280;13308;50.860;13.664;2023-02-26T17:30:45;97144.66;;;-1.03;100.00
25130;BME280;13308;50.860;13.664;2023-02-26T17:33:12;97152.00;;;-1.03;100.00
25130;BME280;13308;50.860;13.664;2023-02-26T17:35:38;97148.28;;;-0.99;100.00
25130;BME280;13308;50.860;13.664;2023-02-26T17:38:03;97158.06;;;-1.06;100.00
25130;BME280;13308;50.860;13.664;2023-02-26T17:40:33;97162.69;;;-1.07;100.00
25130;BME280;13308;50.860;13.664;2023-02-26T17:43:02;97163.78;;;-1.08;100.00
25130;BME280;13308;50.860;13.664;2023-02-26T17:45:29;97164.03;;;-1.13;100.00
25130;BME280;13308;50.860;13.664;2023-02-26T17:47:54;97167.97;;;-1.10;100.00
25130;BME280;13308;50.860;13.664;2023-02-26T17:52:59;97168.75;;;-1.10;100.00
25130;BME280;13308;50.860;13.664;2023-02-26T17:55:24;97179.47;;;-1.13;100.00
25130;BME280;13308;50.860;13.664;2023-02-26T17:57:49;97177.09;;;-1.15;100.00
25130;BME280;13308;50.860;13.664;2023-02-26T18:00:16;97183.06;;;-1.21;100.00
25130;BME280;13308;50.860;13.664;2023-02-26T18:02:42;97185.16;;;-1.27;100.00
25130;BME280;13308;50.860;13.664;2023-02-26T18:05:08;97185.28;;;-1.23;100.00
25130;BME280;13308;50.860;13.664;2023-02-26T18:07:34;97182.47;;;-1.27;100.00
25130;BME280;13308;50.860;13.664;2023-02-26T18:09:59;97198.25;;;-1.29;100.00
25130;BME280;13308;50.860;13.664;2023-02-26T18:12:25;97201.41;;;-1.27;100.00
25130;BME280;13308;50.860;13.664;2023-02-26T18:14:50;97206.47;;;-1.25;100.00
25130;BME280;13308;50.860;13.664;2023-02-26T18:17:27;97210.19;;;-1.30;100.00
25130;BME280;13308;50.860;13.664;2023-02-26T18:19:53;97204.66;;;-1.33;100.00
25130;BME280;13308;50.860;13.664;2023-02-26T18:22:20;97209.72;;;-1.32;100.00
25130;BME280;13308;50.860;13.664;2023-02-26T18:24:49;97212.22;;;-1.27;100.00
25130;BME280;13308;50.860;13.664;2023-02-26T18:27:21;97216.97;;;-1.24;100.00
25130;BME280;13308;50.860;13.664;2023-02-26T18:29:47;97211.56;;;-1.24;100.00
25130;BME280;13308;50.860;13.664;2023-02-26T18:32:14;97209.06;;;-1.29;100.00
25130;BME280;13308;50.860;13.664;2023-02-26T18:34:40;97216.25;;;-1.33;100.00
25130;BME280;13308;50.860;13.664;2023-02-26T18:37:07;97213.53;;;-1.33;100.00
25130;BME280;13308;50.860;13.664;2023-02-26T18:39:35;97209.72;;;-1.32;100.00
25130;BME280;13308;50.860;13.664;2023-02-26T18:42:02;97217.38;;;-1.34;100.00
25130;BME280;13308;50.860;13.664;2023-02-26T18:44:27;97216.94;;;-1.36;100.00
25130;BME280;13308;50.860;13.664;2023-02-26T18:46:53;97225.16;;;-1.32;100.00
25130;BME280;13308;50.860;13.664;2023-02-26T18:49:19;97233.34;;;-1.20;100.00
25130;BME280;13308;50.860;13.664;2023-02-26T18:51:45;97233.22;;;-1.24;100.00
25130;BME280;13308;50.860;13.664;2023-02-26T18:54:10;97244.94;;;-1.20;100.00
25130;BME280;13308;50.860;13.664;2023-02-26T18:56:35;97243.22;;;-1.24;100.00
25130;BME280;13308;50.860;13.664;2023-02-26T18:59:02;97241.31;;;-1.24;100.00
25130;BME280;13308;50.860;13.664;2023-02-26T19:01:27;97255.31;;;-1.22;100.00
25130;BME280;13308;50.860;13.664;2023-02-26T19:03:54;97256.44;;;-1.23;100.00
25130;BME280;13308;50.860;13.664;2023-02-26T19:06:20;97255.97;;;-1.25;100.00
25130;BME280;13308;50.860;13.664;2023-02-26T19:08:45;97254.50;;;-1.22;100.00
25130;BME280;13308;50.860;13.664;2023-02-26T19:11:10;97259.59;;;-1.21;100.00
25130;BME280;13308;50.860;13.664;2023-02-26T19:13:36;97267.50;;;-1.16;100.00
25130;BME280;13308;50.860;13.664;2023-02-26T19:16:01;97265.94;;;-1.17;100.00
25130;BME280;13308;50.860;13.664;2023-02-26T19:18:27;97271.34;;;-1.17;100.00
25130;BME280;13308;50.860;13.664;2023-02-26T19:20:52;97281.34;;;-1.17;100.00
25130;BME280;13308;50.860;13.664;2023-02-26T19:23:18;97280.56;;;-1.18;100.00
25130;BME280;13308;50.860;13.664;2023-02-26T19:25:43;97274.25;;;-1.22;100.00
25130;BME280;13308;50.860;13.664;2023-02-26T19:28:35;97278.84;;;-1.22;100.00
